sensor_id;sensor_type;location;lat;lon;timestamp;pressure;altitude;pressure_sealevel;temperature;humidity
59367;BME280;45163;47.690;11.770;2023-07-31T00:00:49;93567.69;;;15.41;nan
59367;BME280;45163;47.690;11.770;2023-07-31T00:03:15;93564.97;;;15.32;nan
59367;BME280;45163;47.690;11.770;2023-07-31T00:05:41;93565.72;;;15.23;nan
59367;BME280;45163;47.690;11.770;2023-07-31T00:08:07;93569.53;;;15.26;nan
59367;BME280;45163;47.690;11.770;2023-07-31T00:10:33;93570.59;;;15.19;nan
59367;BME280;45163;47.690;11.770;2023-07-31T00:12:59;93567.69;;;15.04;nan
59367;BME280;45163;47.690;11.770;2023-07-31T00:15:25;93569.38;;;14.92;nan
59367;BME280;45163;47.690;11.770;2023-07-31T00:17:51;93573.50;;;14.97;nan
59367;BME280;45163;47.690;11.770;2023-07-31T00:20:17;93573.66;;;15.12;nan
59367;BME280;45163;47.690;11.770;2023-07-31T00:22:43;93567.69;;;15.04;nan
59367;BME280;45163;47.690;11.770;2023-07-31T00:25:09;93575.50;;;15.06;nan
59367;BME280;45163;47.690;11.770;2023-07-31T00:27:35;93570.00;;;15.06;nan
59367;BME280;45163;47.690;11.770;2023-07-31T00:30:01;93571.97;;;15.05;nan
59367;BME280;45163;47.690;11.770;2023-07-31T00:32:27;93574.72;;;15.14;nan
59367;BME280;45163;47.690;11.770;2023-07-31T00:34:53;93574.41;;;15.12;nan
59367;BME280;45163;47.690;11.770;2023-07-31T00:37:19;93571.38;;;15.01;nan
59367;BME280;45163;47.690;11.770;2023-07-31T00:39:45;93567.38;;;15.11;nan
59367;BME280;45163;47.690;11.770;2023-07-31T00:42:10;93570.47;;;15.13;nan
59367;BME280;45163;47.690;11.770;2023-07-31T00:44:36;93571.19;;;15.05;nan
59367;BME280;45163;47.690;11.770;2023-07-31T00:47:02;93562.34;;;15.01;nan
59367;BME280;45163;47.690;11.770;2023-07-31T00:49:28;93552.56;;;15.09;nan
59367;BME280;45163;47.690;11.770;2023-07-31T00:51:55;93554.41;;;15.03;nan
59367;BME280;45163;47.690;11.770;2023-07-31T00:54:23;93557.28;;;14.99;nan
59367;BME280;45163;47.690;11.770;2023-07-31T00:56:50;93549.50;;;14.88;nan
59367;BME280;45163;47.690;11.770;2023-07-31T00:59:18;93546.44;;;14.77;nan
59367;BME280;45163;47.690;11.770;2023-07-31T01:01:45;93543.34;;;14.66;nan
59367;BME280;45163;47.690;11.770;2023-07-31T01:04:12;93551.41;;;14.51;nan
59367;BME280;45163;47.690;11.770;2023-07-31T01:06:54;93552.47;;;14.54;nan
59367;BME280;45163;47.690;11.770;2023-07-31T01:11:57;93550.34;;;14.49;nan
59367;BME280;45163;47.690;11.770;2023-07-31T01:14:25;93547.69;;;14.45;nan
59367;BME280;45163;47.690;11.770;2023-07-31T01:16:51;93548.16;;;14.43;nan
59367;BME280;45163;47.690;11.770;2023-07-31T01:19:21;93542.19;;;14.36;nan
59367;BME280;45163;47.690;11.770;2023-07-31T01:27:51;93528.84;;;14.16;nan
59367;BME280;45163;47.690;11.770;2023-07-31T01:30:25;93526.81;;;14.07;nan
59367;BME280;45163;47.690;11.770;2023-07-31T01:32:54;93533.28;;;14.23;nan
59367;BME280;45163;47.690;11.770;2023-07-31T01:35:21;93526.72;;;14.20;nan
59367;BME280;45163;47.690;11.770;2023-07-31T01:37:47;93522.72;;;14.12;nan
59367;BME280;45163;47.690;11.770;2023-07-31T01:40:13;93524.69;;;14.11;nan
59367;BME280;45163;47.690;11.770;2023-07-31T01:42:39;93529.66;;;13.94;nan
59367;BME280;45163;47.690;11.770;2023-07-31T01:45:05;93521.47;;;14.04;nan
59367;BME280;45163;47.690;11.770;2023-07-31T01:47:31;93522.81;;;13.99;nan
59367;BME280;45163;47.690;11.770;2023-07-31T01:49:57;93516.69;;;13.95;nan
59367;BME280;45163;47.690;11.770;2023-07-31T01:52:23;93514.28;;;13.97;nan
59367;BME280;45163;47.690;11.770;2023-07-31T01:54:49;93524.94;;;13.95;nan
59367;BME280;45163;47.690;11.770;2023-07-31T01:57:15;93521.41;;;13.85;nan
59367;BME280;45163;47.690;11.770;2023-07-31T01:59:41;93513.63;;;13.84;nan
59367;BME280;45163;47.690;11.770;2023-07-31T02:02:07;93518.16;;;13.78;nan
59367;BME280;45163;47.690;11.770;2023-07-31T02:04:33;93520.25;;;13.74;nan
59367;BME280;45163;47.690;11.770;2023-07-31T02:07:00;93514.91;;;13.70;nan
59367;BME280;45163;47.690;11.770;2023-07-31T02:09:25;93499.94;;;13.62;nan
59367;BME280;45163;47.690;11.770;2023-07-31T02:11:51;93500.59;;;13.44;nan
59367;BME280;45163;47.690;11.770;2023-07-31T02:14:17;93501.41;;;13.54;nan
59367;BME280;45163;47.690;11.770;2023-07-31T02:16:43;93500.22;;;13.55;nan
59367;BME280;45163;47.690;11.770;2023-07-31T02:19:09;93500.00;;;13.49;nan
59367;BME280;45163;47.690;11.770;2023-07-31T02:21:35;93499.25;;;13.49;nan
59367;BME280;45163;47.690;11.770;2023-07-31T02:24:01;93516.47;;;13.49;nan
59367;BME280;45163;47.690;11.770;2023-07-31T02:26:27;93515.31;;;13.37;nan
59367;BME280;45163;47.690;11.770;2023-07-31T02:28:53;93509.72;;;13.41;nan
59367;BME280;45163;47.690;11.770;2023-07-31T02:31:19;93503.47;;;13.40;nan
59367;BME280;45163;47.690;11.770;2023-07-31T02:33:45;93508.31;;;13.36;nan
59367;BME280;45163;47.690;11.770;2023-07-31T02:36:11;93512.28;;;13.35;nan
59367;BME280;45163;47.690;11.770;2023-07-31T02:38:37;93513.50;;;13.34;nan
59367;BME280;45163;47.690;11.770;2023-07-31T02:41:03;93513.16;;;13.32;nan
59367;BME280;45163;47.690;11.770;2023-07-31T02:43:29;93514.97;;;13.26;nan
59367;BME280;45163;47.690;11.770;2023-07-31T02:45:55;93503.50;;;13.06;nan
59367;BME280;45163;47.690;11.770;2023-07-31T02:48:20;93504.16;;;13.10;nan
59367;BME280;45163;47.690;11.770;2023-07-31T02:50:47;93498.78;;;13.06;nan
59367;BME280;45163;47.690;11.770;2023-07-31T02:53:13;93500.13;;;13.02;nan
59367;BME280;45163;47.690;11.770;2023-07-31T02:55:39;93507.25;;;12.99;nan
59367;BME280;45163;47.690;11.770;2023-07-31T02:58:05;93506.50;;;12.99;nan
59367;BME280;45163;47.690;11.770;2023-07-31T03:00:31;93504.84;;;13.01;nan
59367;BME280;45163;47.690;11.770;2023-07-31T03:02:57;93507.94;;;12.90;nan
59367;BME280;45163;47.690;11.770;2023-07-31T03:05:23;93504.41;;;13.03;nan
59367;BME280;45163;47.690;11.770;2023-07-31T03:07:49;93495.00;;;12.91;nan
59367;BME280;45163;47.690;11.770;2023-07-31T03:10:15;93498.28;;;12.99;nan
59367;BME280;45163;47.690;11.770;2023-07-31T03:12:41;93488.66;;;12.94;nan
59367;BME280;45163;47.690;11.770;2023-07-31T03:15:08;93483.50;;;12.96;nan
59367;BME280;45163;47.690;11.770;2023-07-31T03:17:34;93491.28;;;12.98;nan
59367;BME280;45163;47.690;11.770;2023-07-31T03:20:00;93485.72;;;12.88;nan
59367;BME280;45163;47.690;11.770;2023-07-31T03:22:25;93484.00;;;12.82;nan
59367;BME280;45163;47.690;11.770;2023-07-31T03:24:51;93480.50;;;12.81;nan
59367;BME280;45163;47.690;11.770;2023-07-31T03:27:18;93486.31;;;12.83;nan
59367;BME280;45163;47.690;11.770;2023-07-31T03:29:44;93479.28;;;12.82;nan
59367;BME280;45163;47.690;11.770;2023-07-31T03:32:10;93484.56;;;12.77;nan
59367;BME280;45163;47.690;11.770;2023-07-31T03:34:36;93491.97;;;12.89;nan
59367;BME280;45163;47.690;11.770;2023-07-31T03:37:02;93494.00;;;12.98;nan
59367;BME280;45163;47.690;11.770;2023-07-31T03:39:28;93501.47;;;12.97;nan
59367;BME280;45163;47.690;11.770;2023-07-31T03:41:54;93495.41;;;12.80;nan
59367;BME280;45163;47.690;11.770;2023-07-31T03:44:20;93500.50;;;12.91;nan
59367;BME280;45163;47.690;11.770;2023-07-31T03:46:46;93492.25;;;12.69;nan
59367;BME280;45163;47.690;11.770;2023-07-31T03:49:12;93495.47;;;12.89;nan
59367;BME280;45163;47.690;11.770;2023-07-31T03:51:38;93491.56;;;13.00;nan
59367;BME280;45163;47.690;11.770;2023-07-31T03:54:03;93491.97;;;12.89;nan
59367;BME280;45163;47.690;11.770;2023-07-31T03:56:29;93493.03;;;12.91;nan
59367;BME280;45163;47.690;11.770;2023-07-31T03:58:55;93492.91;;;12.95;nan
59367;BME280;45163;47.690;11.770;2023-07-31T04:01:21;93490.28;;;12.91;nan
59367;BME280;45163;47.690;11.770;2023-07-31T04:03:48;93499.84;;;12.87;nan
59367;BME280;45163;47.690;11.770;2023-07-31T04:06:13;93491.50;;;12.90;nan
59367;BME280;45163;47.690;11.770;2023-07-31T04:08:44;93500.44;;;12.82;nan
59367;BME280;45163;47.690;11.770;2023-07-31T04:11:11;93494.94;;;12.82;nan
59367;BME280;45163;47.690;11.770;2023-07-31T04:13:38;93496.28;;;12.77;nan
59367;BME280;45163;47.690;11.770;2023-07-31T04:16:04;93491.56;;;12.78;nan
59367;BME280;45163;47.690;11.770;2023-07-31T04:18:30;93485.91;;;12.72;nan
59367;BME280;45163;47.690;11.770;2023-07-31T04:20:58;93490.22;;;12.82;nan
59367;BME280;45163;47.690;11.770;2023-07-31T04:23:25;93484.31;;;12.84;nan
59367;BME280;45163;47.690;11.770;2023-07-31T04:25:51;93491.91;;;12.80;nan
59367;BME280;45163;47.690;11.770;2023-07-31T04:28:17;93488.19;;;12.74;nan
59367;BME280;45163;47.690;11.770;2023-07-31T04:30:43;93484.44;;;12.80;nan
59367;BME280;45163;47.690;11.770;2023-07-31T04:33:09;93485.56;;;12.70;nan
59367;BME280;45163;47.690;11.770;2023-07-31T04:35:35;93492.53;;;12.84;nan
59367;BME280;45163;47.690;11.770;2023-07-31T04:38:01;93486.09;;;13.00;nan
59367;BME280;45163;47.690;11.770;2023-07-31T04:40:27;93499.25;;;13.05;nan
59367;BME280;45163;47.690;11.770;2023-07-31T04:42:53;93495.09;;;13.00;nan
59367;BME280;45163;47.690;11.770;2023-07-31T04:45:19;93499.09;;;13.08;nan
59367;BME280;45163;47.690;11.770;2023-07-31T04:47:45;93494.91;;;13.16;nan
59367;BME280;45163;47.690;11.770;2023-07-31T04:50:11;93484.25;;;13.18;nan
59367;BME280;45163;47.690;11.770;2023-07-31T04:52:37;93489.72;;;13.31;nan
59367;BME280;45163;47.690;11.770;2023-07-31T04:55:03;93483.22;;;13.38;nan
59367;BME280;45163;47.690;11.770;2023-07-31T04:57:29;93479.13;;;13.42;nan
59367;BME280;45163;47.690;11.770;2023-07-31T04:59:55;93474.28;;;13.47;nan
59367;BME280;45163;47.690;11.770;2023-07-31T05:02:21;93464.81;;;13.48;nan
59367;BME280;45163;47.690;11.770;2023-07-31T05:04:47;93463.00;;;13.54;nan
59367;BME280;45163;47.690;11.770;2023-07-31T05:07:13;93473.09;;;13.57;nan
59367;BME280;45163;47.690;11.770;2023-07-31T05:09:39;93467.97;;;13.68;nan
59367;BME280;45163;47.690;11.770;2023-07-31T05:12:05;93474.88;;;13.82;nan
59367;BME280;45163;47.690;11.770;2023-07-31T05:14:31;93472.16;;;13.91;nan
59367;BME280;45163;47.690;11.770;2023-07-31T05:16:57;93473.16;;;14.06;nan
59367;BME280;45163;47.690;11.770;2023-07-31T05:19:23;93466.63;;;14.22;nan
59367;BME280;45163;47.690;11.770;2023-07-31T05:21:49;93465.28;;;14.36;nan
59367;BME280;45163;47.690;11.770;2023-07-31T05:24:15;93469.31;;;14.62;nan
59367;BME280;45163;47.690;11.770;2023-07-31T05:26:41;93456.22;;;14.76;nan
59367;BME280;45163;47.690;11.770;2023-07-31T05:29:07;93460.03;;;14.87;nan
59367;BME280;45163;47.690;11.770;2023-07-31T05:31:33;93451.47;;;15.04;nan
59367;BME280;45163;47.690;11.770;2023-07-31T05:33:59;93444.91;;;15.01;nan
59367;BME280;45163;47.690;11.770;2023-07-31T05:36:25;93455.28;;;15.15;nan
59367;BME280;45163;47.690;11.770;2023-07-31T05:38:51;93452.66;;;15.30;nan
59367;BME280;45163;47.690;11.770;2023-07-31T05:41:17;93453.53;;;15.45;nan
59367;BME280;45163;47.690;11.770;2023-07-31T05:43:44;93452.97;;;15.32;nan
59367;BME280;45163;47.690;11.770;2023-07-31T05:46:10;93456.00;;;15.43;nan
59367;BME280;45163;47.690;11.770;2023-07-31T05:48:37;93453.34;;;15.58;nan
59367;BME280;45163;47.690;11.770;2023-07-31T05:51:03;93449.16;;;15.90;nan
59367;BME280;45163;47.690;11.770;2023-07-31T05:53:29;93446.44;;;16.14;nan
59367;BME280;45163;47.690;11.770;2023-07-31T05:55:55;93436.22;;;16.39;nan
59367;BME280;45163;47.690;11.770;2023-07-31T05:58:21;93429.72;;;16.66;nan
59367;BME280;45163;47.690;11.770;2023-07-31T06:00:47;93425.41;;;16.74;nan
59367;BME280;45163;47.690;11.770;2023-07-31T06:03:13;93420.13;;;16.61;nan
59367;BME280;45163;47.690;11.770;2023-07-31T06:05:39;93420.97;;;16.77;nan
59367;BME280;45163;47.690;11.770;2023-07-31T06:08:05;93416.41;;;16.88;nan
59367;BME280;45163;47.690;11.770;2023-07-31T06:10:31;93425.38;;;17.13;nan
59367;BME280;45163;47.690;11.770;2023-07-31T06:12:57;93419.31;;;17.38;nan
59367;BME280;45163;47.690;11.770;2023-07-31T06:15:23;93412.66;;;17.30;nan
59367;BME280;45163;47.690;11.770;2023-07-31T06:17:49;93408.97;;;17.18;nan
59367;BME280;45163;47.690;11.770;2023-07-31T06:20:15;93410.19;;;17.47;nan
59367;BME280;45163;47.690;11.770;2023-07-31T06:22:41;93406.84;;;17.87;nan
59367;BME280;45163;47.690;11.770;2023-07-31T06:25:07;93404.97;;;18.14;nan
59367;BME280;45163;47.690;11.770;2023-07-31T06:27:33;93407.19;;;18.30;nan
59367;BME280;45163;47.690;11.770;2023-07-31T06:29:59;93407.31;;;18.21;nan
59367;BME280;45163;47.690;11.770;2023-07-31T06:32:25;93391.38;;;18.51;nan
59367;BME280;45163;47.690;11.770;2023-07-31T06:34:51;93400.94;;;18.71;nan
59367;BME280;45163;47.690;11.770;2023-07-31T06:37:17;93392.16;;;18.92;nan
59367;BME280;45163;47.690;11.770;2023-07-31T06:39:42;93394.59;;;18.64;nan
59367;BME280;45163;47.690;11.770;2023-07-31T06:42:08;93385.78;;;18.66;nan
59367;BME280;45163;47.690;11.770;2023-07-31T06:44:34;93391.34;;;18.86;nan
59367;BME280;45163;47.690;11.770;2023-07-31T06:47:00;93396.16;;;18.91;nan
59367;BME280;45163;47.690;11.770;2023-07-31T06:49:26;93397.16;;;19.40;nan
59367;BME280;45163;47.690;11.770;2023-07-31T06:51:52;93396.25;;;19.81;nan
59367;BME280;45163;47.690;11.770;2023-07-31T06:54:18;93389.09;;;20.43;nan
59367;BME280;45163;47.690;11.770;2023-07-31T06:56:44;93378.44;;;20.30;nan
59367;BME280;45163;47.690;11.770;2023-07-31T06:59:10;93377.63;;;20.67;nan
59367;BME280;45163;47.690;11.770;2023-07-31T07:01:36;93383.00;;;20.87;nan
59367;BME280;45163;47.690;11.770;2023-07-31T07:04:02;93378.88;;;21.54;nan
59367;BME280;45163;47.690;11.770;2023-07-31T07:06:28;93375.25;;;21.14;nan
59367;BME280;45163;47.690;11.770;2023-07-31T07:08:54;93372.00;;;21.16;nan
59367;BME280;45163;47.690;11.770;2023-07-31T07:11:20;93371.28;;;21.43;nan
59367;BME280;45163;47.690;11.770;2023-07-31T07:13:46;93367.00;;;21.48;nan
59367;BME280;45163;47.690;11.770;2023-07-31T07:16:12;93365.75;;;21.54;nan
59367;BME280;45163;47.690;11.770;2023-07-31T07:18:38;93360.22;;;21.49;nan
59367;BME280;45163;47.690;11.770;2023-07-31T07:21:04;93354.31;;;21.13;nan
59367;BME280;45163;47.690;11.770;2023-07-31T07:23:30;93357.81;;;20.91;nan
59367;BME280;45163;47.690;11.770;2023-07-31T07:25:56;93360.31;;;20.83;nan
59367;BME280;45163;47.690;11.770;2023-07-31T07:28:22;93366.66;;;21.06;nan
59367;BME280;45163;47.690;11.770;2023-07-31T07:30:52;93367.97;;;21.28;nan
59367;BME280;45163;47.690;11.770;2023-07-31T07:33:19;93369.81;;;21.59;nan
59367;BME280;45163;47.690;11.770;2023-07-31T07:35:45;93369.31;;;21.83;nan
59367;BME280;45163;47.690;11.770;2023-07-31T07:38:11;93356.66;;;21.93;nan
59367;BME280;45163;47.690;11.770;2023-07-31T07:40:40;93355.91;;;21.76;nan
59367;BME280;45163;47.690;11.770;2023-07-31T07:43:06;93343.03;;;21.78;nan
59367;BME280;45163;47.690;11.770;2023-07-31T07:45:32;93339.47;;;21.44;nan
59367;BME280;45163;47.690;11.770;2023-07-31T07:47:58;93339.22;;;21.93;nan
59367;BME280;45163;47.690;11.770;2023-07-31T07:50:25;93346.16;;;22.55;nan
59367;BME280;45163;47.690;11.770;2023-07-31T07:52:51;93334.81;;;23.83;nan
59367;BME280;45163;47.690;11.770;2023-07-31T07:55:17;93338.16;;;25.17;nan
59367;BME280;45163;47.690;11.770;2023-07-31T07:57:42;93334.50;;;24.41;nan
59367;BME280;45163;47.690;11.770;2023-07-31T08:00:11;93329.41;;;25.77;nan
59367;BME280;45163;47.690;11.770;2023-07-31T08:02:37;93339.97;;;24.52;nan
59367;BME280;45163;47.690;11.770;2023-07-31T08:05:04;93326.09;;;25.09;nan
59367;BME280;45163;47.690;11.770;2023-07-31T08:07:30;93328.41;;;25.43;nan
59367;BME280;45163;47.690;11.770;2023-07-31T08:09:56;93334.44;;;25.28;nan
59367;BME280;45163;47.690;11.770;2023-07-31T08:12:21;93329.94;;;26.21;nan
59367;BME280;45163;47.690;11.770;2023-07-31T08:14:47;93316.59;;;26.27;nan
59367;BME280;45163;47.690;11.770;2023-07-31T08:17:13;93304.91;;;25.32;nan
59367;BME280;45163;47.690;11.770;2023-07-31T08:19:39;93308.44;;;26.69;nan
59367;BME280;45163;47.690;11.770;2023-07-31T08:22:05;93302.94;;;26.64;nan
59367;BME280;45163;47.690;11.770;2023-07-31T08:24:31;93311.31;;;26.90;nan
59367;BME280;45163;47.690;11.770;2023-07-31T08:26:57;93300.53;;;25.69;nan
59367;BME280;45163;47.690;11.770;2023-07-31T08:29:23;93302.19;;;26.76;nan
59367;BME280;45163;47.690;11.770;2023-07-31T08:31:50;93296.56;;;26.23;nan
59367;BME280;45163;47.690;11.770;2023-07-31T08:34:16;93294.19;;;26.14;nan
59367;BME280;45163;47.690;11.770;2023-07-31T08:36:42;93289.88;;;25.36;nan
59367;BME280;45163;47.690;11.770;2023-07-31T08:39:08;93287.63;;;24.77;nan
59367;BME280;45163;47.690;11.770;2023-07-31T08:41:38;93278.75;;;24.79;nan
59367;BME280;45163;47.690;11.770;2023-07-31T08:44:07;93277.16;;;25.53;nan
59367;BME280;45163;47.690;11.770;2023-07-31T08:46:34;93282.13;;;26.32;nan
59367;BME280;45163;47.690;11.770;2023-07-31T08:49:04;93274.41;;;25.67;nan
59367;BME280;45163;47.690;11.770;2023-07-31T08:51:30;93272.22;;;24.52;nan
59367;BME280;45163;47.690;11.770;2023-07-31T08:53:56;93274.38;;;24.83;nan
59367;BME280;45163;47.690;11.770;2023-07-31T08:56:23;93277.28;;;24.91;nan
59367;BME280;45163;47.690;11.770;2023-07-31T08:58:51;93277.06;;;25.08;nan
59367;BME280;45163;47.690;11.770;2023-07-31T09:01:17;93276.84;;;25.06;nan
59367;BME280;45163;47.690;11.770;2023-07-31T09:03:44;93271.03;;;25.55;nan
59367;BME280;45163;47.690;11.770;2023-07-31T09:06:12;93262.34;;;24.51;nan
59367;BME280;45163;47.690;11.770;2023-07-31T09:08:41;93267.19;;;23.77;nan
59367;BME280;45163;47.690;11.770;2023-07-31T09:11:08;93266.94;;;23.45;nan
59367;BME280;45163;47.690;11.770;2023-07-31T09:13:34;93264.53;;;23.60;nan
59367;BME280;45163;47.690;11.770;2023-07-31T09:16:00;93264.97;;;23.70;nan
59367;BME280;45163;47.690;11.770;2023-07-31T09:18:26;93262.50;;;23.91;nan
59367;BME280;45163;47.690;11.770;2023-07-31T09:21:05;93253.16;;;23.58;nan
59367;BME280;45163;47.690;11.770;2023-07-31T09:23:45;93270.69;;;24.07;nan
59367;BME280;45163;47.690;11.770;2023-07-31T09:26:35;93264.69;;;24.22;nan
59367;BME280;45163;47.690;11.770;2023-07-31T09:29:05;93258.19;;;23.90;nan
59367;BME280;45163;47.690;11.770;2023-07-31T09:31:41;93262.03;;;23.56;nan
59367;BME280;45163;47.690;11.770;2023-07-31T09:34:08;93252.91;;;22.96;nan
59367;BME280;45163;47.690;11.770;2023-07-31T09:36:44;93249.66;;;23.22;nan
59367;BME280;45163;47.690;11.770;2023-07-31T09:39:12;93246.56;;;22.90;nan
59367;BME280;45163;47.690;11.770;2023-07-31T09:41:40;93252.53;;;23.10;nan
59367;BME280;45163;47.690;11.770;2023-07-31T09:44:06;93247.22;;;23.13;nan
59367;BME280;45163;47.690;11.770;2023-07-31T09:46:35;93249.25;;;22.65;nan
59367;BME280;45163;47.690;11.770;2023-07-31T09:49:05;93251.88;;;22.46;nan
59367;BME280;45163;47.690;11.770;2023-07-31T09:51:32;93245.97;;;23.08;nan
59367;BME280;45163;47.690;11.770;2023-07-31T09:53:58;93245.44;;;24.00;nan
59367;BME280;45163;47.690;11.770;2023-07-31T09:56:24;93257.00;;;24.28;nan
59367;BME280;45163;47.690;11.770;2023-07-31T09:58:52;93251.66;;;24.30;nan
59367;BME280;45163;47.690;11.770;2023-07-31T10:01:19;93237.53;;;24.47;nan
59367;BME280;45163;47.690;11.770;2023-07-31T10:03:45;93240.31;;;25.23;nan
59367;BME280;45163;47.690;11.770;2023-07-31T10:06:13;93230.94;;;25.66;nan
59367;BME280;45163;47.690;11.770;2023-07-31T10:08:43;93235.47;;;25.69;nan
59367;BME280;45163;47.690;11.770;2023-07-31T10:11:13;93238.13;;;25.48;nan
59367;BME280;45163;47.690;11.770;2023-07-31T10:13:41;93230.59;;;24.73;nan
59367;BME280;45163;47.690;11.770;2023-07-31T10:16:08;93230.22;;;24.63;nan
59367;BME280;45163;47.690;11.770;2023-07-31T10:18:35;93228.34;;;24.71;nan
59367;BME280;45163;47.690;11.770;2023-07-31T10:21:02;93227.84;;;24.29;nan
59367;BME280;45163;47.690;11.770;2023-07-31T10:23:28;93223.88;;;25.00;nan
59367;BME280;45163;47.690;11.770;2023-07-31T10:25:56;93214.50;;;24.98;nan
59367;BME280;45163;47.690;11.770;2023-07-31T10:28:24;93218.44;;;24.70;nan
59367;BME280;45163;47.690;11.770;2023-07-31T10:30:51;93217.31;;;25.17;nan
59367;BME280;45163;47.690;11.770;2023-07-31T10:33:17;93221.13;;;26.44;nan
59367;BME280;45163;47.690;11.770;2023-07-31T10:35:47;93207.50;;;27.09;nan
59367;BME280;45163;47.690;11.770;2023-07-31T10:38:14;93207.94;;;27.55;nan
59367;BME280;45163;47.690;11.770;2023-07-31T10:40:40;93212.38;;;26.95;nan
59367;BME280;45163;47.690;11.770;2023-07-31T10:43:07;93203.19;;;27.08;nan
59367;BME280;45163;47.690;11.770;2023-07-31T10:45:39;93207.94;;;27.00;nan
59367;BME280;45163;47.690;11.770;2023-07-31T10:48:07;93207.38;;;26.46;nan
59367;BME280;45163;47.690;11.770;2023-07-31T10:50:38;93198.69;;;25.65;nan
59367;BME280;45163;47.690;11.770;2023-07-31T10:53:04;93193.16;;;25.91;nan
59367;BME280;45163;47.690;11.770;2023-07-31T10:55:39;93193.91;;;26.05;nan
59367;BME280;45163;47.690;11.770;2023-07-31T10:58:10;93187.41;;;26.97;nan
59367;BME280;45163;47.690;11.770;2023-07-31T11:00:38;93178.59;;;27.77;nan
59367;BME280;45163;47.690;11.770;2023-07-31T11:03:15;93177.56;;;28.60;nan
59367;BME280;45163;47.690;11.770;2023-07-31T11:05:42;93193.25;;;28.99;nan
59367;BME280;45163;47.690;11.770;2023-07-31T11:08:12;93187.16;;;28.72;nan
59367;BME280;45163;47.690;11.770;2023-07-31T11:10:38;93187.38;;;28.38;nan
59367;BME280;45163;47.690;11.770;2023-07-31T11:13:04;93177.28;;;28.87;nan
59367;BME280;45163;47.690;11.770;2023-07-31T11:15:31;93182.34;;;28.96;nan
59367;BME280;45163;47.690;11.770;2023-07-31T11:17:57;93186.97;;;28.70;nan
59367;BME280;45163;47.690;11.770;2023-07-31T11:20:26;93189.81;;;28.78;nan
59367;BME280;45163;47.690;11.770;2023-07-31T11:22:52;93176.72;;;28.88;nan
59367;BME280;45163;47.690;11.770;2023-07-31T11:25:19;93167.81;;;29.20;nan
59367;BME280;45163;47.690;11.770;2023-07-31T11:27:45;93161.66;;;29.52;nan
59367;BME280;45163;47.690;11.770;2023-07-31T11:30:11;93159.94;;;30.18;nan
59367;BME280;45163;47.690;11.770;2023-07-31T11:32:37;93157.34;;;29.59;nan
59367;BME280;45163;47.690;11.770;2023-07-31T11:35:04;93155.22;;;30.13;nan
59367;BME280;45163;47.690;11.770;2023-07-31T11:37:41;93154.84;;;30.24;nan
59367;BME280;45163;47.690;11.770;2023-07-31T11:40:08;93135.94;;;29.18;nan
59367;BME280;45163;47.690;11.770;2023-07-31T11:42:35;93140.63;;;29.46;nan
59367;BME280;45163;47.690;11.770;2023-07-31T11:45:05;93131.25;;;28.97;nan
59367;BME280;45163;47.690;11.770;2023-07-31T11:47:35;93126.91;;;29.96;nan
59367;BME280;45163;47.690;11.770;2023-07-31T11:50:05;93119.44;;;29.91;nan
59367;BME280;45163;47.690;11.770;2023-07-31T11:52:37;93111.09;;;31.04;nan
59367;BME280;45163;47.690;11.770;2023-07-31T11:55:04;93111.69;;;31.28;nan
59367;BME280;45163;47.690;11.770;2023-07-31T11:57:32;93114.53;;;31.95;nan
59367;BME280;45163;47.690;11.770;2023-07-31T12:00:09;93107.13;;;31.57;nan
59367;BME280;45163;47.690;11.770;2023-07-31T12:02:37;93102.69;;;31.21;nan
59367;BME280;45163;47.690;11.770;2023-07-31T12:05:10;93102.56;;;30.46;nan
59367;BME280;45163;47.690;11.770;2023-07-31T12:07:46;93093.47;;;31.71;nan
59367;BME280;45163;47.690;11.770;2023-07-31T12:10:33;93085.34;;;30.75;nan
59367;BME280;45163;47.690;11.770;2023-07-31T12:15:40;93087.94;;;31.06;nan
59367;BME280;45163;47.690;11.770;2023-07-31T12:18:19;93082.56;;;31.50;nan
59367;BME280;45163;47.690;11.770;2023-07-31T12:20:47;93078.22;;;31.32;nan
59367;BME280;45163;47.690;11.770;2023-07-31T12:23:19;93082.63;;;31.85;nan
59367;BME280;45163;47.690;11.770;2023-07-31T12:26:00;93070.66;;;31.34;nan
59367;BME280;45163;47.690;11.770;2023-07-31T12:28:26;93060.88;;;31.35;nan
59367;BME280;45163;47.690;11.770;2023-07-31T12:30:57;93057.31;;;32.12;nan
59367;BME280;45163;47.690;11.770;2023-07-31T12:33:23;93055.81;;;31.93;nan
59367;BME280;45163;47.690;11.770;2023-07-31T12:35:49;93055.34;;;31.45;nan
59367;BME280;45163;47.690;11.770;2023-07-31T12:38:15;93054.44;;;32.29;nan
59367;BME280;45163;47.690;11.770;2023-07-31T12:40:41;93036.41;;;30.88;nan
59367;BME280;45163;47.690;11.770;2023-07-31T12:43:08;93031.75;;;32.37;nan
59367;BME280;45163;47.690;11.770;2023-07-31T12:45:35;93035.31;;;32.55;nan
59367;BME280;45163;47.690;11.770;2023-07-31T12:48:01;93035.88;;;32.09;nan
59367;BME280;45163;47.690;11.770;2023-07-31T12:50:27;93031.97;;;31.27;nan
59367;BME280;45163;47.690;11.770;2023-07-31T12:52:54;93020.00;;;31.79;nan
59367;BME280;45163;47.690;11.770;2023-07-31T12:55:21;93012.16;;;31.10;nan
59367;BME280;45163;47.690;11.770;2023-07-31T12:57:49;93014.50;;;31.81;nan
59367;BME280;45163;47.690;11.770;2023-07-31T13:00:15;93006.88;;;32.08;nan
59367;BME280;45163;47.690;11.770;2023-07-31T13:02:41;93009.34;;;31.35;nan
59367;BME280;45163;47.690;11.770;2023-07-31T13:05:08;93011.84;;;32.17;nan
59367;BME280;45163;47.690;11.770;2023-07-31T13:07:34;93006.91;;;31.91;nan
59367;BME280;45163;47.690;11.770;2023-07-31T13:10:00;93007.16;;;32.47;nan
59367;BME280;45163;47.690;11.770;2023-07-31T13:12:26;92999.00;;;31.55;nan
59367;BME280;45163;47.690;11.770;2023-07-31T13:14:52;93001.84;;;31.89;nan
59367;BME280;45163;47.690;11.770;2023-07-31T13:17:18;92996.91;;;32.52;nan
59367;BME280;45163;47.690;11.770;2023-07-31T13:19:44;92993.34;;;31.72;nan